sensor_id;sensor_type;location;lat;lon;timestamp;temperature;humidity
35607;DHT22;21729;58.392;15.656;2023-05-07T00:02:22;0.90;1.00
35607;DHT22;21729;58.392;15.656;2023-05-07T00:04:49;0.90;1.00
35607;DHT22;21729;58.392;15.656;2023-05-07T00:07:19;0.90;1.00
35607;DHT22;21729;58.392;15.656;2023-05-07T00:09:46;0.90;1.00
35607;DHT22;21729;58.392;15.656;2023-05-07T00:12:13;0.90;1.00
35607;DHT22;21729;58.392;15.656;2023-05-07T00:14:42;0.90;1.00
35607;DHT22;21729;58.392;15.656;2023-05-07T00:17:09;0.90;6.90
35607;DHT22;21729;58.392;15.656;2023-05-07T00:19:36;0.90;6.20
35607;DHT22;21729;58.392;15.656;2023-05-07T00:22:03;0.90;16.80
35607;DHT22;21729;58.392;15.656;2023-05-07T00:24:32;0.90;26.30
35607;DHT22;21729;58.392;15.656;2023-05-07T00:27:00;0.80;9.70
35607;DHT22;21729;58.392;15.656;2023-05-07T00:29:27;0.60;6.10
35607;DHT22;21729;58.392;15.656;2023-05-07T00:31:54;0.50;6.70
35607;DHT22;21729;58.392;15.656;2023-05-07T00:34:21;0.40;16.50
35607;DHT22;21729;58.392;15.656;2023-05-07T00:36:48;0.30;24.80
35607;DHT22;21729;58.392;15.656;2023-05-07T00:39:16;0.20;30.70
35607;DHT22;21729;58.392;15.656;2023-05-07T00:41:44;0.10;33.60
35607;DHT22;21729;58.392;15.656;2023-05-07T00:44:11;0.10;52.80
35607;DHT22;21729;58.392;15.656;2023-05-07T00:46:39;0.00;71.40
35607;DHT22;21729;58.392;15.656;2023-05-07T00:49:06;0.00;71.50
35607;DHT22;21729;58.392;15.656;2023-05-07T00:51:33;-0.10;56.70
35607;DHT22;21729;58.392;15.656;2023-05-07T00:54:01;-0.20;59.40
35607;DHT22;21729;58.392;15.656;2023-05-07T00:56:28;-0.20;75.40
35607;DHT22;21729;58.392;15.656;2023-05-07T00:58:57;-0.20;84.60
35607;DHT22;21729;58.392;15.656;2023-05-07T01:01:25;-0.30;94.60
35607;DHT22;21729;58.392;15.656;2023-05-07T01:03:52;-0.30;99.90
35607;DHT22;21729;58.392;15.656;2023-05-07T01:06:20;-0.20;99.90
35607;DHT22;21729;58.392;15.656;2023-05-07T01:08:49;-0.30;99.90
35607;DHT22;21729;58.392;15.656;2023-05-07T01:11:18;-0.20;99.90
35607;DHT22;21729;58.392;15.656;2023-05-07T01:13:47;-0.20;99.90
35607;DHT22;21729;58.392;15.656;2023-05-07T01:16:17;-0.30;99.90
35607;DHT22;21729;58.392;15.656;2023-05-07T01:18:44;0.00;99.90
35607;DHT22;21729;58.392;15.656;2023-05-07T01:21:15;-0.20;99.90
35607;DHT22;21729;58.392;15.656;2023-05-07T01:23:45;-0.40;99.90
35607;DHT22;21729;58.392;15.656;2023-05-07T01:26:12;-0.50;99.90
35607;DHT22;21729;58.392;15.656;2023-05-07T01:28:39;-0.60;99.90
35607;DHT22;21729;58.392;15.656;2023-05-07T01:31:07;-0.40;99.90
35607;DHT22;21729;58.392;15.656;2023-05-07T01:33:36;-0.70;99.90
35607;DHT22;21729;58.392;15.656;2023-05-07T01:36:05;-0.40;99.90
35607;DHT22;21729;58.392;15.656;2023-05-07T01:38:35;-0.80;99.90
35607;DHT22;21729;58.392;15.656;2023-05-07T01:41:04;-0.80;99.90
35607;DHT22;21729;58.392;15.656;2023-05-07T01:43:32;-0.80;99.90
35607;DHT22;21729;58.392;15.656;2023-05-07T01:46:00;-0.80;99.90
35607;DHT22;21729;58.392;15.656;2023-05-07T01:48:28;-0.70;99.90
35607;DHT22;21729;58.392;15.656;2023-05-07T01:50:56;-0.80;99.90
35607;DHT22;21729;58.392;15.656;2023-05-07T01:53:23;-0.90;99.90
35607;DHT22;21729;58.392;15.656;2023-05-07T01:55:50;-0.90;99.90
35607;DHT22;21729;58.392;15.656;2023-05-07T01:58:18;-0.90;99.90
35607;DHT22;21729;58.392;15.656;2023-05-07T02:00:45;-1.00;99.90
35607;DHT22;21729;58.392;15.656;2023-05-07T02:03:13;-0.90;99.90
35607;DHT22;21729;58.392;15.656;2023-05-07T02:05:40;-0.90;99.90
35607;DHT22;21729;58.392;15.656;2023-05-07T02:08:07;-1.00;99.90
35607;DHT22;21729;58.392;15.656;2023-05-07T02:10:34;-1.00;99.90
35607;DHT22;21729;58.392;15.656;2023-05-07T02:13:01;-1.00;99.90
35607;DHT22;21729;58.392;15.656;2023-05-07T02:15:30;-1.00;99.90
35607;DHT22;21729;58.392;15.656;2023-05-07T02:18:01;-1.00;99.90
35607;DHT22;21729;58.392;15.656;2023-05-07T02:20:28;-0.90;99.90
35607;DHT22;21729;58.392;15.656;2023-05-07T02:22:56;-0.70;99.90
35607;DHT22;21729;58.392;15.656;2023-05-07T02:25:23;-0.90;99.90
35607;DHT22;21729;58.392;15.656;2023-05-07T02:27:50;-1.00;99.90
35607;DHT22;21729;58.392;15.656;2023-05-07T02:30:17;-0.90;99.90
35607;DHT22;21729;58.392;15.656;2023-05-07T02:32:48;-1.10;99.90
35607;DHT22;21729;58.392;15.656;2023-05-07T02:35:15;-1.10;99.90
35607;DHT22;21729;58.392;15.656;2023-05-07T02:37:42;-1.10;99.90
35607;DHT22;21729;58.392;15.656;2023-05-07T02:40:11;-1.20;99.90
35607;DHT22;21729;58.392;15.656;2023-05-07T02:42:38;-1.10;99.90
35607;DHT22;21729;58.392;15.656;2023-05-07T02:45:06;-1.10;99.90
35607;DHT22;21729;58.392;15.656;2023-05-07T02:47:33;-1.10;99.90
35607;DHT22;21729;58.392;15.656;2023-05-07T02:50:03;-1.10;99.90
35607;DHT22;21729;58.392;15.656;2023-05-07T02:52:30;-1.10;99.90
35607;DHT22;21729;58.392;15.656;2023-05-07T02:54:57;-1.10;99.90
35607;DHT22;21729;58.392;15.656;2023-05-07T02:57:24;-0.70;99.90
35607;DHT22;21729;58.392;15.656;2023-05-07T02:59:51;-1.00;99.90
35607;DHT22;21729;58.392;15.656;2023-05-07T03:02:18;-1.00;99.90
35607;DHT22;21729;58.392;15.656;2023-05-07T03:04:45;-1.00;99.90
35607;DHT22;21729;58.392;15.656;2023-05-07T03:07:14;-0.90;99.90
35607;DHT22;21729;58.392;15.656;2023-05-07T03:09:41;-1.00;99.90
35607;DHT22;21729;58.392;15.656;2023-05-07T03:12:08;-1.10;99.90
35607;DHT22;21729;58.392;15.656;2023-05-07T03:14:35;-1.10;99.90
35607;DHT22;21729;58.392;15.656;2023-05-07T03:17:02;-1.20;99.90
35607;DHT22;21729;58.392;15.656;2023-05-07T03:19:29;-1.10;99.90
35607;DHT22;21729;58.392;15.656;2023-05-07T03:21:57;-1.10;99.90
35607;DHT22;21729;58.392;15.656;2023-05-07T03:24:26;-1.00;99.90
35607;DHT22;21729;58.392;15.656;2023-05-07T03:26:53;-1.10;99.90
35607;DHT22;21729;58.392;15.656;2023-05-07T03:29:20;-1.10;99.90
35607;DHT22;21729;58.392;15.656;2023-05-07T03:31:47;-1.10;99.90
35607;DHT22;21729;58.392;15.656;2023-05-07T03:34:14;-1.10;99.90
35607;DHT22;21729;58.392;15.656;2023-05-07T03:36:42;-1.10;99.90
35607;DHT22;21729;58.392;15.656;2023-05-07T03:39:10;-1.00;99.90
35607;DHT22;21729;58.392;15.656;2023-05-07T03:41:38;-1.00;99.90
35607;DHT22;21729;58.392;15.656;2023-05-07T03:44:05;-1.00;99.90
35607;DHT22;21729;58.392;15.656;2023-05-07T03:46:33;-0.90;99.90
35607;DHT22;21729;58.392;15.656;2023-05-07T03:49:01;-1.00;99.90
35607;DHT22;21729;58.392;15.656;2023-05-07T03:51:28;-0.80;99.90
35607;DHT22;21729;58.392;15.656;2023-05-07T03:53:55;-0.70;99.90
35607;DHT22;21729;58.392;15.656;2023-05-07T03:56:23;-0.60;99.90
35607;DHT22;21729;58.392;15.656;2023-05-07T03:58:53;-0.60;99.90
35607;DHT22;21729;58.392;15.656;2023-05-07T04:01:20;-0.50;99.90
35607;DHT22;21729;58.392;15.656;2023-05-07T04:03:47;-0.40;99.90
35607;DHT22;21729;58.392;15.656;2023-05-07T04:06:16;-0.40;99.90
35607;DHT22;21729;58.392;15.656;2023-05-07T04:08:43;-0.40;99.90
35607;DHT22;21729;58.392;15.656;2023-05-07T04:11:10;-0.40;99.90
35607;DHT22;21729;58.392;15.656;2023-05-07T04:13:38;-0.40;99.90
35607;DHT22;21729;58.392;15.656;2023-05-07T04:16:06;-0.50;99.90
35607;DHT22;21729;58.392;15.656;2023-05-07T04:18:34;-0.40;99.90
35607;DHT22;21729;58.392;15.656;2023-05-07T04:21:01;-0.30;99.90
35607;DHT22;21729;58.392;15.656;2023-05-07T04:23:28;-0.20;99.90
35607;DHT22;21729;58.392;15.656;2023-05-07T04:25:55;0.00;99.90
35607;DHT22;21729;58.392;15.656;2023-05-07T04:28:23;-0.10;99.90
35607;DHT22;21729;58.392;15.656;2023-05-07T04:30:50;0.20;99.90
35607;DHT22;21729;58.392;15.656;2023-05-07T04:33:18;0.10;99.90
35607;DHT22;21729;58.392;15.656;2023-05-07T04:35:45;0.30;99.90
35607;DHT22;21729;58.392;15.656;2023-05-07T04:38:13;0.30;99.90
35607;DHT22;21729;58.392;15.656;2023-05-07T04:40:40;0.50;99.90
35607;DHT22;21729;58.392;15.656;2023-05-07T04:43:08;0.50;99.90
35607;DHT22;21729;58.392;15.656;2023-05-07T04:45:35;0.40;99.90
35607;DHT22;21729;58.392;15.656;2023-05-07T04:48:02;0.30;99.90
35607;DHT22;21729;58.392;15.656;2023-05-07T04:50:31;0.50;99.90
35607;DHT22;21729;58.392;15.656;2023-05-07T04:52:58;0.50;99.90
35607;DHT22;21729;58.392;15.656;2023-05-07T04:55:25;0.70;99.90
35607;DHT22;21729;58.392;15.656;2023-05-07T04:57:53;0.70;99.90
35607;DHT22;21729;58.392;15.656;2023-05-07T05:00:20;0.70;99.90
35607;DHT22;21729;58.392;15.656;2023-05-07T05:02:48;0.70;99.90
35607;DHT22;21729;58.392;15.656;2023-05-07T05:05:15;0.70;99.90
35607;DHT22;21729;58.392;15.656;2023-05-07T05:07:44;0.80;99.90
35607;DHT22;21729;58.392;15.656;2023-05-07T05:10:11;0.90;99.90
35607;DHT22;21729;58.392;15.656;2023-05-07T05:12:38;1.00;99.90
35607;DHT22;21729;58.392;15.656;2023-05-07T05:15:07;1.10;99.90
35607;DHT22;21729;58.392;15.656;2023-05-07T05:17:34;1.30;99.90
35607;DHT22;21729;58.392;15.656;2023-05-07T05:20:02;1.50;99.90
35607;DHT22;21729;58.392;15.656;2023-05-07T05:22:29;1.70;99.90
35607;DHT22;21729;58.392;15.656;2023-05-07T05:24:58;1.90;99.90
35607;DHT22;21729;58.392;15.656;2023-05-07T05:27:26;1.90;99.90
35607;DHT22;21729;58.392;15.656;2023-05-07T05:29:53;2.10;99.90
35607;DHT22;21729;58.392;15.656;2023-05-07T05:32:20;2.10;99.90
35607;DHT22;21729;58.392;15.656;2023-05-07T05:34:47;2.30;99.90
35607;DHT22;21729;58.392;15.656;2023-05-07T05:37:14;2.40;99.90
35607;DHT22;21729;58.392;15.656;2023-05-07T05:39:42;2.80;99.90
35607;DHT22;21729;58.392;15.656;2023-05-07T05:42:11;3.30;71.30
35607;DHT22;21729;58.392;15.656;2023-05-07T05:44:38;3.60;1.00
35607;DHT22;21729;58.392;15.656;2023-05-07T05:47:05;3.80;9.70
35607;DHT22;21729;58.392;15.656;2023-05-07T05:49:32;4.10;1.00
35607;DHT22;21729;58.392;15.656;2023-05-07T05:52:00;4.20;1.00
35607;DHT22;21729;58.392;15.656;2023-05-07T05:54:27;4.60;1.00
35607;DHT22;21729;58.392;15.656;2023-05-07T05:56:54;5.10;1.00
35607;DHT22;21729;58.392;15.656;2023-05-07T05:59:23;7.60;99.90
35607;DHT22;21729;58.392;15.656;2023-05-07T06:01:50;11.20;10.20
35607;DHT22;21729;58.392;15.656;2023-05-07T06:04:19;13.50;1.00
35607;DHT22;21729;58.392;15.656;2023-05-07T06:06:46;14.20;99.90
35607;DHT22;21729;58.392;15.656;2023-05-07T06:09:14;14.90;99.90
35607;DHT22;21729;58.392;15.656;2023-05-07T06:11:41;16.00;99.90
35607;DHT22;21729;58.392;15.656;2023-05-07T06:14:08;16.80;99.90
35607;DHT22;21729;58.392;15.656;2023-05-07T06:16:37;16.80;99.90
35607;DHT22;21729;58.392;15.656;2023-05-07T06:19:04;17.30;99.90
35607;DHT22;21729;58.392;15.656;2023-05-07T06:21:31;16.90;99.90
35607;DHT22;21729;58.392;15.656;2023-05-07T06:23:59;16.90;99.90
35607;DHT22;21729;58.392;15.656;2023-05-07T06:26:26;18.00;99.90
35607;DHT22;21729;58.392;15.656;2023-05-07T06:28:53;17.90;99.90
35607;DHT22;21729;58.392;15.656;2023-05-07T06:31:20;17.40;99.90
35607;DHT22;21729;58.392;15.656;2023-05-07T06:33:49;18.50;99.90
35607;DHT22;21729;58.392;15.656;2023-05-07T06:36:16;18.30;99.90
35607;DHT22;21729;58.392;15.656;2023-05-07T06:38:44;18.60;99.90
35607;DHT22;21729;58.392;15.656;2023-05-07T06:41:11;18.40;99.90
35607;DHT22;21729;58.392;15.656;2023-05-07T06:43:38;17.90;99.90
35607;DHT22;21729;58.392;15.656;2023-05-07T06:46:05;18.80;99.90
35607;DHT22;21729;58.392;15.656;2023-05-07T06:48:32;19.80;99.90
35607;DHT22;21729;58.392;15.656;2023-05-07T06:51:01;19.20;99.90
35607;DHT22;21729;58.392;15.656;2023-05-07T06:53:28;19.70;99.90
35607;DHT22;21729;58.392;15.656;2023-05-07T06:55:56;19.20;99.90
35607;DHT22;21729;58.392;15.656;2023-05-07T06:58:23;19.30;99.90
35607;DHT22;21729;58.392;15.656;2023-05-07T07:00:50;19.50;99.90
35607;DHT22;21729;58.392;15.656;2023-05-07T07:03:17;19.20;99.90
35607;DHT22;21729;58.392;15.656;2023-05-07T07:05:44;18.60;99.90
35607;DHT22;21729;58.392;15.656;2023-05-07T07:08:16;19.50;99.90
35607;DHT22;21729;58.392;15.656;2023-05-07T07:10:43;19.80;99.90
35607;DHT22;21729;58.392;15.656;2023-05-07T07:13:11;20.10;99.90
35607;DHT22;21729;58.392;15.656;2023-05-07T07:15:38;20.20;99.90
35607;DHT22;21729;58.392;15.656;2023-05-07T07:18:05;20.30;99.90
35607;DHT22;21729;58.392;15.656;2023-05-07T07:20:32;20.80;79.30
35607;DHT22;21729;58.392;15.656;2023-05-07T07:22:59;20.20;81.60
35607;DHT22;21729;58.392;15.656;2023-05-07T07:25:28;20.40;99.90
35607;DHT22;21729;58.392;15.656;2023-05-07T07:27:55;20.80;99.90
35607;DHT22;21729;58.392;15.656;2023-05-07T07:30:25;21.00;99.90
35607;DHT22;21729;58.392;15.656;2023-05-07T07:32:55;20.20;89.10
35607;DHT22;21729;58.392;15.656;2023-05-07T07:35:27;21.10;83.20
35607;DHT22;21729;58.392;15.656;2023-05-07T07:37:55;21.30;47.50
35607;DHT22;21729;58.392;15.656;2023-05-07T07:40:22;20.90;35.50
35607;DHT22;21729;58.392;15.656;2023-05-07T07:42:50;22.20;28.20
35607;DHT22;21729;58.392;15.656;2023-05-07T07:45:18;22.00;12.50
35607;DHT22;21729;58.392;15.656;2023-05-07T07:47:45;21.20;96.30
35607;DHT22;21729;58.392;15.656;2023-05-07T07:50:12;20.70;55.90
35607;DHT22;21729;58.392;15.656;2023-05-07T07:52:39;20.20;51.60
35607;DHT22;21729;58.392;15.656;2023-05-07T07:55:07;21.90;38.40
35607;DHT22;21729;58.392;15.656;2023-05-07T07:57:34;21.40;55.60
35607;DHT22;21729;58.392;15.656;2023-05-07T08:00:04;21.30;77.00
35607;DHT22;21729;58.392;15.656;2023-05-07T08:02:32;21.20;47.20
35607;DHT22;21729;58.392;15.656;2023-05-07T08:05:00;21.90;58.50
35607;DHT22;21729;58.392;15.656;2023-05-07T08:07:27;21.60;31.10
35607;DHT22;21729;58.392;15.656;2023-05-07T08:09:54;20.60;52.40
35607;DHT22;21729;58.392;15.656;2023-05-07T08:12:21;20.30;38.80
35607;DHT22;21729;58.392;15.656;2023-05-07T08:14:48;20.60;55.90
35607;DHT22;21729;58.392;15.656;2023-05-07T08:17:17;21.90;43.90
35607;DHT22;21729;58.392;15.656;2023-05-07T08:19:44;21.90;17.50
35607;DHT22;21729;58.392;15.656;2023-05-07T08:22:11;21.20;33.60
35607;DHT22;21729;58.392;15.656;2023-05-07T08:24:38;21.10;37.30
35607;DHT22;21729;58.392;15.656;2023-05-07T08:27:05;21.30;19.60
35607;DHT22;21729;58.392;15.656;2023-05-07T08:29:32;21.50;66.60
35607;DHT22;21729;58.392;15.656;2023-05-07T08:32:00;21.30;50.10
35607;DHT22;21729;58.392;15.656;2023-05-07T08:34:28;22.10;29.70
35607;DHT22;21729;58.392;15.656;2023-05-07T08:36:55;22.60;50.30
35607;DHT22;21729;58.392;15.656;2023-05-07T08:39:22;22.40;22.90
35607;DHT22;21729;58.392;15.656;2023-05-07T08:41:52;22.00;10.90
35607;DHT22;21729;58.392;15.656;2023-05-07T08:44:22;22.30;17.50
35607;DHT22;21729;58.392;15.656;2023-05-07T08:46:53;22.30;23.80
35607;DHT22;21729;58.392;15.656;2023-05-07T08:49:22;21.80;21.60
35607;DHT22;21729;58.392;15.656;2023-05-07T08:51:50;22.20;8.70
35607;DHT22;21729;58.392;15.656;2023-05-07T08:54:18;22.30;1.00
35607;DHT22;21729;58.392;15.656;2023-05-07T08:56:47;22.30;19.60
35607;DHT22;21729;58.392;15.656;2023-05-07T08:59:14;22.30;31.70
35607;DHT22;21729;58.392;15.656;2023-05-07T09:01:41;22.20;5.10
35607;DHT22;21729;58.392;15.656;2023-05-07T09:04:08;22.50;1.00
35607;DHT22;21729;58.392;15.656;2023-05-07T09:06:36;22.40;1.00
35607;DHT22;21729;58.392;15.656;2023-05-07T09:09:05;22.60;24.40
35607;DHT22;21729;58.392;15.656;2023-05-07T09:11:32;21.60;1.00
35607;DHT22;21729;58.392;15.656;2023-05-07T09:13:59;22.30;1.00
35607;DHT22;21729;58.392;15.656;2023-05-07T09:16:29;22.00;1.00
35607;DHT22;21729;58.392;15.656;2023-05-07T09:18:58;21.60;1.00
35607;DHT22;21729;58.392;15.656;2023-05-07T09:21:25;22.80;1.00
35607;DHT22;21729;58.392;15.656;2023-05-07T09:23:55;22.20;1.20
35607;DHT22;21729;58.392;15.656;2023-05-07T09:26:24;22.40;28.70
35607;DHT22;21729;58.392;15.656;2023-05-07T09:28:54;22.00;1.00
35607;DHT22;21729;58.392;15.656;2023-05-07T09:31:21;22.20;1.00
35607;DHT22;21729;58.392;15.656;2023-05-07T09:33:49;21.90;1.90
35607;DHT22;21729;58.392;15.656;2023-05-07T09:36:16;22.90;1.00
35607;DHT22;21729;58.392;15.656;2023-05-07T09:38:44;23.00;1.00
35607;DHT22;21729;58.392;15.656;2023-05-07T09:41:12;22.70;1.00
35607;DHT22;21729;58.392;15.656;2023-05-07T09:43:41;22.70;1.00
35607;DHT22;21729;58.392;15.656;2023-05-07T09:46:11;21.80;1.00
35607;DHT22;21729;58.392;15.656;2023-05-07T09:48:41;21.70;1.00
35607;DHT22;21729;58.392;15.656;2023-05-07T09:51:18;22.30;1.00
35607;DHT22;21729;58.392;15.656;2023-05-07T09:53:48;21.80;1.00
35607;DHT22;21729;58.392;15.656;2023-05-07T09:56:18;21.30;1.00
35607;DHT22;21729;58.392;15.656;2023-05-07T09:58:47;20.70;1.00
35607;DHT22;21729;58.392;15.656;2023-05-07T10:01:17;18.70;23.40
35607;DHT22;21729;58.392;15.656;2023-05-07T10:03:46;17.80;1.00
35607;DHT22;21729;58.392;15.656;2023-05-07T10:06:13;17.70;1.00
35607;DHT22;21729;58.392;15.656;2023-05-07T10:08:43;17.20;25.20
35607;DHT22;21729;58.392;15.656;2023-05-07T10:11:10;16.60;1.00
35607;DHT22;21729;58.392;15.656;2023-05-07T10:13:37;16.90;34.70
35607;DHT22;21729;58.392;15.656;2023-05-07T10:16:06;16.90;29.50
35607;DHT22;21729;58.392;15.656;2023-05-07T10:18:33;16.50;11.00
35607;DHT22;21729;58.392;15.656;2023-05-07T10:21:04;16.40;19.50
35607;DHT22;21729;58.392;15.656;2023-05-07T10:23:33;16.50;43.10
35607;DHT22;21729;58.392;15.656;2023-05-07T10:26:03;16.60;53.30
35607;DHT22;21729;58.392;15.656;2023-05-07T10:28:34;16.10;4.20
35607;DHT22;21729;58.392;15.656;2023-05-07T10:31:20;16.10;33.20
35607;DHT22;21729;58.392;15.656;2023-05-07T10:33:51;15.80;30.60
35607;DHT22;21729;58.392;15.656;2023-05-07T10:36:20;15.70;10.60
35607;DHT22;21729;58.392;15.656;2023-05-07T10:38:47;15.90;32.30
35607;DHT22;21729;58.392;15.656;2023-05-07T10:41:15;15.80;41.10
35607;DHT22;21729;58.392;15.656;2023-05-07T10:43:45;16.00;11.10
35607;DHT22;21729;58.392;15.656;2023-05-07T10:46:17;15.80;25.80
35607;DHT22;21729;58.392;15.656;2023-05-07T10:49:11;15.90;22.70
35607;DHT22;21729;58.392;15.656;2023-05-07T10:51:38;15.30;9.20
35607;DHT22;21729;58.392;15.656;2023-05-07T10:54:26;15.30;27.50
35607;DHT22;21729;58.392;15.656;2023-05-07T10:56:54;15.20;42.30
35607;DHT22;21729;58.392;15.656;2023-05-07T10:59:37;15.20;14.90
35607;DHT22;21729;58.392;15.656;2023-05-07T11:02:09;15.40;22.00
35607;DHT22;21729;58.392;15.656;2023-05-07T11:04:39;15.40;10.10
35607;DHT22;21729;58.392;15.656;2023-05-07T11:07:27;15.00;43.90
35607;DHT22;21729;58.392;15.656;2023-05-07T11:10:02;15.20;13.80
35607;DHT22;21729;58.392;15.656;2023-05-07T11:12:51;15.20;21.70
35607;DHT22;21729;58.392;15.656;2023-05-07T11:15:42;14.90;8.50
35607;DHT22;21729;58.392;15.656;2023-05-07T11:18:12;14.70;12.30
35607;DHT22;21729;58.392;15.656;2023-05-07T11:20:53;14.90;13.00
35607;DHT22;21729;58.392;15.656;2023-05-07T11:23:55;14.70;5.80
35607;DHT22;21729;58.392;15.656;2023-05-07T11:26:23;14.60;32.40
35607;DHT22;21729;58.392;15.656;2023-05-07T11:28:51;14.30;33.50
35607;DHT22;21729;58.392;15.656;2023-05-07T11:31:24;14.40;26.00
35607;DHT22;21729;58.392;15.656;2023-05-07T11:33:53;14.60;19.40
35607;DHT22;21729;58.392;15.656;2023-05-07T11:36:23;14.80;36.30
35607;DHT22;21729;58.392;15.656;2023-05-07T11:38:50;14.80;22.70
35607;DHT22;21729;58.392;15.656;2023-05-07T11:41:18;14.90;28.50
35607;DHT22;21729;58.392;15.656;2023-05-07T11:43:57;14.80;21.00
35607;DHT22;21729;58.392;15.656;2023-05-07T11:46:25;15.00;39.70
35607;DHT22;21729;58.392;15.656;2023-05-07T11:48:54;14.80;26.60
35607;DHT22;21729;58.392;15.656;2023-05-07T11:51:23;14.80;27.40
35607;DHT22;21729;58.392;15.656;2023-05-07T11:53:54;14.50;40.80
35607;DHT22;21729;58.392;15.656;2023-05-07T11:56:21;14.40;37.10
35607;DHT22;21729;58.392;15.656;2023-05-07T11:58:48;14.40;32.10
35607;DHT22;21729;58.392;15.656;2023-05-07T12:01:17;14.50;34.40
35607;DHT22;21729;58.392;15.656;2023-05-07T12:03:45;14.40;40.70
35607;DHT22;21729;58.392;15.656;2023-05-07T12:06:14;14.60;45.70
35607;DHT22;21729;58.392;15.656;2023-05-07T12:08:42;14.50;43.90
35607;DHT22;21729;58.392;15.656;2023-05-07T12:11:12;14.20;39.60
35607;DHT22;21729;58.392;15.656;2023-05-07T12:13:41;14.30;50.50
35607;DHT22;21729;58.392;15.656;2023-05-07T12:16:08;14.40;36.80
35607;DHT22;21729;58.392;15.656;2023-05-07T12:18:36;14.50;44.50
35607;DHT22;21729;58.392;15.656;2023-05-07T12:21:05;14.70;61.20
35607;DHT22;21729;58.392;15.656;2023-05-07T12:23:36;14.70;32.20
35607;DHT22;21729;58.392;15.656;2023-05-07T12:26:04;14.60;32.70
35607;DHT22;21729;58.392;15.656;2023-05-07T12:28:36;14.70;45.00
35607;DHT22;21729;58.392;15.656;2023-05-07T12:31:04;14.60;59.10
35607;DHT22;21729;58.392;15.656;2023-05-07T12:33:32;14.30;54.20
35607;DHT22;21729;58.392;15.656;2023-05-07T12:36:03;14.50;40.90
35607;DHT22;21729;58.392;15.656;2023-05-07T12:38:37;14.00;31.10
35607;DHT22;21729;58.392;15.656;2023-05-07T12:41:05;14.30;40.50
35607;DHT22;21729;58.392;15.656;2023-05-07T12:43:33;14.40;33.70
35607;DHT22;21729;58.392;15.656;2023-05-07T12:46:01;14.50;37.20
35607;DHT22;21729;58.392;15.656;2023-05-07T12:48:28;14.40;25.90
35607;DHT22;21729;58.392;15.656;2023-05-07T12:50:56;14.30;18.80
35607;DHT22;21729;58.392;15.656;2023-05-07T12:53:25;14.40;38.40
35607;DHT22;21729;58.392;15.656;2023-05-07T12:55:55;14.50;41.60
35607;DHT22;21729;58.392;15.656;2023-05-07T12:58:25;14.80;34.40
35607;DHT22;21729;58.392;15.656;2023-05-07T13:00:54;14.90;44.50
35607;DHT22;21729;58.392;15.656;2023-05-07T13:03:25;14.70;30.50
35607;DHT22;21729;58.392;15.656;2023-05-07T13:05:54;14.70;37.10
35607;DHT22;21729;58.392;15.656;2023-05-07T13:08:29;14.60;36.90
35607;DHT22;21729;58.392;15.656;2023-05-07T13:10:59;14.50;34.10
35607;DHT22;21729;58.392;15.656;2023-05-07T13:13:29;14.40;57.50
35607;DHT22;21729;58.392;15.656;2023-05-07T13:15:56;14.50;34.70
35607;DHT22;21729;58.392;15.656;2023-05-07T13:18:24;14.30;34.90
35607;DHT22;21729;58.392;15.656;2023-05-07T13:20:53;14.20;40.30
35607;DHT22;21729;58.392;15.656;2023-05-07T13:23:20;14.40;36.30
35607;DHT22;21729;58.392;15.656;2023-05-07T13:25:48;14.60;53.70
35607;DHT22;21729;58.392;15.656;2023-05-07T13:28:17;14.90;46.50
35607;DHT22;21729;58.392;15.656;2023-05-07T13:30:46;14.80;35.30
35607;DHT22;21729;58.392;15.656;2023-05-07T13:33:13;14.90;44.60
35607;DHT22;21729;58.392;15.656;2023-05-07T13:35:41;15.20;31.40
35607;DHT22;21729;58.392;15.656;2023-05-07T13:38:08;15.20;24.50
35607;DHT22;21729;58.392;15.656;2023-05-07T13:40:35;15.10;31.50
35607;DHT22;21729;58.392;15.656;2023-05-07T13:43:03;15.10;17.50
35607;DHT22;21729;58.392;15.656;2023-05-07T13:45:31;15.20;34.80
35607;DHT22;21729;58.392;15.656;2023-05-07T13:47:58;15.20;19.80
35607;DHT22;21729;58.392;15.656;2023-05-07T13:50:25;15.20;17.80
35607;DHT22;21729;58.392;15.656;2023-05-07T13:52:55;15.20;24.20
35607;DHT22;21729;58.392;15.656;2023-05-07T13:55:24;15.20;27.60
35607;DHT22;21729;58.392;15.656;2023-05-07T13:57:55;14.90;14.00
35607;DHT22;21729;58.392;15.656;2023-05-07T14:00:23;14.90;12.00
35607;DHT22;21729;58.392;15.656;2023-05-07T14:02:52;14.50;17.90
35607;DHT22;21729;58.392;15.656;2023-05-07T14:05:19;14.40;26.40
35607;DHT22;21729;58.392;15.656;2023-05-07T14:07:46;14.30;14.40
35607;DHT22;21729;58.392;15.656;2023-05-07T14:10:14;14.30;25.00
35607;DHT22;21729;58.392;15.656;2023-05-07T14:12:41;14.60;13.10
35607;DHT22;21729;58.392;15.656;2023-05-07T14:15:09;14.40;22.70
35607;DHT22;21729;58.392;15.656;2023-05-07T14:17:36;14.30;41.60
35607;DHT22;21729;58.392;15.656;2023-05-07T14:20:06;14.40;39.00
35607;DHT22;21729;58.392;15.656;2023-05-07T14:22:34;14.30;26.70
35607;DHT22;21729;58.392;15.656;2023-05-07T14:25:01;14.20;38.00
35607;DHT22;21729;58.392;15.656;2023-05-07T14:27:28;14.10;37.30
35607;DHT22;21729;58.392;15.656;2023-05-07T14:29:55;14.00;49.90
35607;DHT22;21729;58.392;15.656;2023-05-07T14:32:22;14.00;37.40
35607;DHT22;21729;58.392;15.656;2023-05-07T14:34:50;14.10;38.40
35607;DHT22;21729;58.392;15.656;2023-05-07T14:37:18;14.10;39.60
35607;DHT22;21729;58.392;15.656;2023-05-07T14:39:47;13.90;48.10
35607;DHT22;21729;58.392;15.656;2023-05-07T14:42:15;13.90;44.30
35607;DHT22;21729;58.392;15.656;2023-05-07T14:44:43;13.80;27.70
35607;DHT22;21729;58.392;15.656;2023-05-07T14:47:11;13.70;28.90
35607;DHT22;21729;58.392;15.656;2023-05-07T14:49:39;13.80;30.40
35607;DHT22;21729;58.392;15.656;2023-05-07T14:52:08;13.70;51.60
35607;DHT22;21729;58.392;15.656;2023-05-07T14:54:37;13.60;35.60
35607;DHT22;21729;58.392;15.656;2023-05-07T14:57:05;13.60;60.70
35607;DHT22;21729;58.392;15.656;2023-05-07T14:59:33;13.50;52.10
35607;DHT22;21729;58.392;15.656;2023-05-07T15:02:01;13.70;34.40
35607;DHT22;21729;58.392;15.656;2023-05-07T15:04:28;13.70;53.50
35607;DHT22;21729;58.392;15.656;2023-05-07T15:06:56;13.60;67.70
35607;DHT22;21729;58.392;15.656;2023-05-07T15:09:23;13.90;51.80
35607;DHT22;21729;58.392;15.656;2023-05-07T15:11:52;13.70;28.60
35607;DHT22;21729;58.392;15.656;2023-05-07T15:14:19;13.60;30.80
35607;DHT22;21729;58.392;15.656;2023-05-07T15:16:47;13.70;31.90
35607;DHT22;21729;58.392;15.656;2023-05-07T15:19:14;13.60;35.60
35607;DHT22;21729;58.392;15.656;2023-05-07T15:21:42;13.50;46.20
35607;DHT22;21729;58.392;15.656;2023-05-07T15:24:09;13.70;53.40
35607;DHT22;21729;58.392;15.656;2023-05-07T15:26:36;13.70;48.70
35607;DHT22;21729;58.392;15.656;2023-05-07T15:29:05;13.90;78.70